createdAt,value
2024-04-23T00:02:40.046Z,100869.19
2024-04-23T00:08:01.673Z,100867.98
2024-04-23T00:13:29.178Z,100860.04
2024-04-23T00:18:56.398Z,100853.36
2024-04-23T00:24:17.758Z,100859.02
2024-04-23T00:29:27.998Z,100865.31
2024-04-23T00:34:47.350Z,100867.00
2024-04-23T00:40:07.979Z,100872.01
2024-04-23T00:45:38.938Z,100871.06
2024-04-23T00:50:52.316Z,100876.02
2024-04-23T00:56:21.232Z,100878.08
2024-04-23T01:01:49.712Z,100877.19
2024-04-23T01:07:16.603Z,100875.27
2024-04-23T01:12:28.737Z,100867.30
2024-04-23T01:17:41.780Z,100859.60
2024-04-23T01:23:16.052Z,100858.52
2024-04-23T01:28:33.644Z,100851.05
2024-04-23T01:33:44.698Z,100840.98
2024-04-23T01:38:55.001Z,100839.13
2024-04-23T01:44:13.439Z,100835.80
2024-04-23T01:49:26.178Z,100844.99
2024-04-23T01:54:43.935Z,100841.88
2024-04-23T02:00:00.479Z,100842.23
2024-04-23T02:05:14.906Z,100841.89
2024-04-23T02:10:22.280Z,100845.86
2024-04-23T02:15:32.651Z,100845.86
2024-04-23T02:20:59.668Z,100855.06
2024-04-23T02:26:20.122Z,100858.58
2024-04-23T02:31:27.265Z,100861.96
2024-04-23T02:36:47.794Z,100860.02
2024-04-23T02:42:05.808Z,100854.38
2024-04-23T02:47:25.864Z,100848.41
2024-04-23T02:52:52.896Z,100843.48
2024-04-23T02:58:20.264Z,100844.52
2024-04-23T03:03:48.007Z,100839.69
2024-04-23T03:09:07.914Z,100839.54
2024-04-23T03:14:34.867Z,100836.78
2024-04-23T03:19:47.533Z,100828.77
2024-04-23T03:24:54.484Z,100821.95
2024-04-23T03:30:07.489Z,100819.36
2024-04-23T03:35:19.904Z,100818.67
2024-04-23T03:40:40.765Z,100811.27
2024-04-23T03:45:47.623Z,100802.55
2024-04-23T03:51:13.745Z,100795.61
2024-04-23T03:56:20.665Z,100793.75
2024-04-23T04:01:33.194Z,100798.98
2024-04-23T04:06:43.450Z,100793.19
2024-04-23T04:12:10.369Z,100798.36
2024-04-23T04:17:24.334Z,100803.56
2024-04-23T04:22:35.935Z,100800.17
2024-04-23T04:27:53.861Z,100800.50
2024-04-23T04:33:10.149Z,100803.37
2024-04-23T04:38:36.292Z,100806.23
2024-04-23T04:44:02.954Z,100808.11
2024-04-23T04:49:29.986Z,100809.60
2024-04-23T04:55:06.665Z,100805.69
2024-04-23T05:00:44.075Z,100805.98
2024-04-23T05:05:56.863Z,100805.22
2024-04-23T05:11:07.040Z,100795.77
2024-04-23T05:16:33.125Z,100794.59
2024-04-23T05:21:57.534Z,100792.61
2024-04-23T05:27:25.029Z,100794.59
2024-04-23T05:32:52.247Z,100795.48
2024-04-23T05:38:19.953Z,100795.17
2024-04-23T05:43:39.941Z,100791.60
2024-04-23T05:49:42.189Z,100795.40
2024-04-23T05:55:35.648Z,100795.50
2024-04-23T06:00:56.258Z,100793.25
2024-04-23T06:06:16.461Z,100790.14
2024-04-23T06:11:32.319Z,100787.56
2024-04-23T06:17:31.501Z,100784.96
2024-04-23T06:23:04.761Z,100788.27
2024-04-23T06:28:34.424Z,100790.84
2024-04-23T06:34:01.701Z,100794.52
2024-04-23T06:39:14.178Z,100785.27
2024-04-23T06:44:35.323Z,100784.26
2024-04-23T06:49:56.364Z,100783.35
2024-04-23T06:55:16.629Z,100778.03
2024-04-23T07:00:44.082Z,100774.84
2024-04-23T07:06:11.464Z,100770.41
2024-04-23T07:11:38.738Z,100764.11
2024-04-23T07:17:06.703Z,100758.80
2024-04-23T07:22:27.337Z,100758.95
2024-04-23T07:27:45.418Z,100756.46
2024-04-23T07:33:12.785Z,100748.95
2024-04-23T07:38:28.315Z,100740.69
2024-04-23T07:43:52.451Z,100732.02
2024-04-23T07:49:00.286Z,100724.27
2024-04-23T07:54:27.467Z,100718.20
2024-04-23T07:59:43.357Z,100720.09
2024-04-23T08:05:10.911Z,100714.81
2024-04-23T08:10:18.709Z,100704.23
2024-04-23T08:15:35.506Z,100698.73
2024-04-23T08:20:44.863Z,100704.64
2024-04-23T08:26:16.484Z,100695.15
2024-04-23T08:31:43.939Z,100689.16
2024-04-23T08:37:01.474Z,100693.75
2024-04-23T08:42:14.391Z,100690.95
2024-04-23T08:47:24.929Z,100672.91
2024-04-23T08:52:35.336Z,100669.13
2024-04-23T08:57:48.359Z,100661.81
2024-04-23T09:03:01.124Z,100650.18
2024-04-23T09:08:21.771Z,100645.77
2024-04-23T09:13:29.627Z,100635.14
2024-04-23T09:18:40.152Z,100629.05
2024-04-23T09:24:08.291Z,100620.31
2024-04-23T09:29:16.811Z,100627.98
2024-04-23T09:34:32.522Z,100623.89
2024-04-23T09:39:46.010Z,100620.25
2024-04-23T09:45:16.420Z,100607.69
2024-04-23T09:50:27.866Z,100601.55
2024-04-23T09:55:40.452Z,100598.04
2024-04-23T10:00:50.453Z,100589.61
2024-04-23T10:06:04.674Z,100579.45
2024-04-23T10:11:12.134Z,100568.64
2024-04-23T10:16:45.653Z,100561.74
2024-04-23T10:22:12.735Z,100556.06
2024-04-23T10:27:20.662Z,100548.73
2024-04-23T10:32:29.337Z,100540.84
2024-04-23T10:37:39.882Z,100534.94
2024-04-23T10:43:02.367Z,100526.63
2024-04-23T10:48:13.085Z,100521.86
2024-04-23T10:53:22.605Z,100512.08
2024-04-23T10:58:39.062Z,100499.80
2024-04-23T11:03:58.705Z,100495.73
2024-04-23T11:09:35.459Z,100492.54
2024-04-23T11:14:51.378Z,100485.63
2024-04-23T11:20:01.149Z,100479.75
2024-04-23T11:25:09.652Z,100468.46
2024-04-23T11:30:27.468Z,100460.85
2024-04-23T11:35:40.607Z,100455.81
2024-04-23T11:40:50.841Z,100439.79
2024-04-23T11:45:57.564Z,100432.98
2024-04-23T11:51:13.400Z,100420.42
2024-04-23T11:56:20.088Z,100421.11
2024-04-23T12:01:29.271Z,100411.73
2024-04-23T12:06:36.274Z,100398.54
2024-04-23T12:11:46.849Z,100378.98
2024-04-23T12:16:53.935Z,100367.17
2024-04-23T12:22:01.096Z,100353.38
2024-04-23T12:27:08.097Z,100349.64
2024-04-23T12:32:14.910Z,100343.77
2024-04-23T12:37:24.980Z,100337.72
2024-04-23T12:42:32.015Z,100328.54
2024-04-23T12:47:39.235Z,100317.90
2024-04-23T12:52:46.910Z,100304.25
2024-04-23T12:57:53.626Z,100285.27
2024-04-23T13:03:00.422Z,100270.91
2024-04-23T13:08:08.210Z,100263.30
2024-04-23T13:13:15.447Z,100262.48
2024-04-23T13:18:22.445Z,100263.82
2024-04-23T13:23:29.484Z,100255.62
2024-04-23T13:28:36.467Z,100250.93
2024-04-23T13:33:44.155Z,100251.23
2024-04-23T13:38:50.802Z,100243.44
2024-04-23T13:43:57.613Z,100232.75
2024-04-23T13:49:04.529Z,100223.14
2024-04-23T13:54:11.301Z,100221.54
2024-04-23T13:59:20.509Z,100215.39
2024-04-23T14:04:27.298Z,100199.48
2024-04-23T14:09:34.113Z,100199.47
2024-04-23T14:14:42.781Z,100198.98
2024-04-23T14:19:49.376Z,100191.85
2024-04-23T14:24:56.593Z,100182.41
2024-04-23T14:30:03.663Z,100177.88
2024-04-23T14:35:10.805Z,100172.01
2024-04-23T14:40:17.700Z,100169.45
2024-04-23T14:45:24.403Z,100162.51
2024-04-23T14:50:31.776Z,100148.45
2024-04-23T14:55:38.780Z,100140.94
2024-04-23T15:00:45.735Z,100135.70
2024-04-23T15:05:52.432Z,100134.64
2024-04-23T15:10:59.697Z,100130.17
2024-04-23T15:16:07.636Z,100125.66
2024-04-23T15:21:15.933Z,100130.12
2024-04-23T15:26:23.209Z,100128.86
2024-04-23T15:31:29.891Z,100125.34
2024-04-23T15:36:39.650Z,100121.86
2024-04-23T15:41:46.373Z,100121.16
2024-04-23T15:46:53.214Z,100118.14
2024-04-23T15:52:00.365Z,100104.44
2024-04-23T15:57:09.144Z,100101.88
2024-04-23T16:02:16.367Z,100095.52
2024-04-23T16:07:23.208Z,100094.09
2024-04-23T16:12:32.985Z,100091.95
2024-04-23T16:17:39.804Z,100088.57
2024-04-23T16:22:46.627Z,100081.80
2024-04-23T16:27:53.674Z,100079.27
2024-04-23T16:33:08.140Z,100083.34
2024-04-23T16:38:15.560Z,100077.95
2024-04-23T16:43:24.789Z,100076.61
2024-04-23T16:48:35.380Z,100075.18
2024-04-23T16:53:42.665Z,100065.52
2024-04-23T16:58:52.020Z,100066.03
2024-04-23T17:03:58.767Z,100064.65
2024-04-23T17:09:06.438Z,100067.81
2024-04-23T17:14:19.345Z,100064.50
2024-04-23T17:19:26.320Z,100064.05
2024-04-23T17:24:37.922Z,100058.45
2024-04-23T17:29:44.874Z,100056.86
2024-04-23T17:34:51.878Z,100052.55
2024-04-23T17:39:58.858Z,100043.70
2024-04-23T17:45:06.375Z,100039.51
2024-04-23T17:50:13.155Z,100032.70
2024-04-23T17:55:30.552Z,100024.10
2024-04-23T18:00:40.425Z,100020.63
2024-04-23T18:05:51.175Z,100020.29
2024-04-23T18:11:00.922Z,100019.77
2024-04-23T18:16:16.783Z,100018.11
2024-04-23T18:21:27.961Z,100014.12
2024-04-23T18:26:34.950Z,100013.38
2024-04-23T18:31:42.645Z,100010.36
2024-04-23T18:37:02.277Z,100013.56
2024-04-23T18:42:09.848Z,100014.85
2024-04-23T18:47:38.892Z,100012.00
2024-04-23T18:52:48.583Z,100015.46
2024-04-23T18:58:13.420Z,100017.30
2024-04-23T19:03:22.834Z,100011.59
2024-04-23T19:08:30.012Z,100006.20
2024-04-23T19:13:37.029Z,100000.98
2024-04-23T19:18:49.926Z,99997.48
2024-04-23T19:24:02.369Z,99995.70
2024-04-23T19:29:12.006Z,99986.95
2024-04-23T19:34:18.926Z,99981.39
2024-04-23T19:39:31.885Z,99976.86
2024-04-23T19:44:41.791Z,99972.70
2024-04-23T19:49:52.412Z,99969.02
2024-04-23T19:55:02.246Z,99965.30
2024-04-23T20:00:11.377Z,99959.88
2024-04-23T20:05:25.993Z,99951.41
2024-04-23T20:10:38.595Z,99940.55
2024-04-23T20:15:45.619Z,99937.70
2024-04-23T20:20:57.022Z,99927.84
2024-04-23T20:26:06.856Z,99930.29
2024-04-23T20:31:16.212Z,99928.30
2024-04-23T20:36:43.196Z,99929.72
2024-04-23T20:41:55.489Z,99927.21
2024-04-23T20:47:04.710Z,99928.31
2024-04-23T20:52:17.182Z,99920.88
2024-04-23T20:57:34.133Z,99911.58
2024-04-23T21:02:41.215Z,99909.44
2024-04-23T21:07:51.418Z,99907.64
2024-04-23T21:12:58.908Z,99904.30
2024-04-23T21:18:06.445Z,99895.19
2024-04-23T21:23:26.446Z,99889.62
2024-04-23T21:28:33.079Z,99889.85
2024-04-23T21:34:00.064Z,99882.61
2024-04-23T21:39:07.009Z,99877.06
2024-04-23T21:44:26.594Z,99872.70
2024-04-23T21:49:52.226Z,99868.11
2024-04-23T21:54:59.049Z,99864.73
2024-04-23T22:00:13.139Z,99864.26
2024-04-23T22:05:31.741Z,99866.17
2024-04-23T22:10:58.860Z,99871.64
2024-04-23T22:16:12.790Z,99864.19
2024-04-23T22:21:30.736Z,99856.59
2024-04-23T22:26:40.655Z,99855.46
2024-04-23T22:31:49.922Z,99853.30
2024-04-23T22:37:10.529Z,99846.58
2024-04-23T22:42:30.088Z,99837.96
2024-04-23T22:47:57.201Z,99831.73
2024-04-23T22:53:15.567Z,99825.67
2024-04-23T22:58:36.630Z,99816.90
2024-04-23T23:03:43.511Z,99811.48
2024-04-23T23:09:10.646Z,99809.46
2024-04-23T23:14:26.890Z,99804.02
2024-04-23T23:19:44.071Z,99796.25
2024-04-23T23:24:55.509Z,99792.73
2024-04-23T23:30:13.931Z,99780.86
2024-04-23T23:35:23.556Z,99776.50
2024-04-23T23:40:40.273Z,99767.89
2024-04-23T23:46:08.362Z,99760.96
2024-04-23T23:51:35.289Z,99754.39
2024-04-23T23:56:42.050Z,99749.35
